Menü       Start   X °F

Wählen Sie einen anderen Zeitraum ( Verstecke diesen Bereich )

Einheiten Zeitraum Benutzerdefinierten Bereich Direkt zu
Metrisch Englisch Beide
Tägliche Wöchentliche Monatliche Jährlich
Verwenden Sie beide Datumsselektoren für einen benutzerdefinierten Bereich
vorherige Tag
Mit diesem Datum
Tägliche Zusammenfassung für Mittwoch 17 April 2024
Zeit Temp. ( °C ) Taupunkt ( °C ) Wind ( km/h ) Von Windböen ( km/h ) Luftdruck ( hPa ) Feuchtigkeit( % ) Niederschlagsrate ( cm )
Hoch10,9 7,7 23,0 Westen ( 214/971 ) 23,0 1011,0 95 2,64
Durchchnittswerte6,9 5,0 6,1 NW #34/160 4,6 1010,7 88 1,30
Wenig4,7 3,6 -   0,0 1010,2 71 -
Tägliche Tabellarische Details für Mittwoch 17 April 2024
Zeit Temp. ( °C ) Taupunkt ( °C ) Wind ( km/h ) Von Windböen ( km/h ) Luftdruck ( hPa ) Feuchtigkeit( % ) Niederschlagsrate ( cm )
00:04 6,4 4,6 4,0 WNW 8,0 1010,6 88 -
00:09 6,3 4,5 6,0 WNW 2,0 1010,6 88 -
00:14 6,3 4,4 4,0 WNW 3,0 1010,7 88 -
00:19 6,2 4,3 4,0 WNW 5,0 1010,7 88 -
00:24 6,2 4,3 4,0 WNW 2,0 1010,7 88 -
00:29 6,1 4,3 4,0 WNW 3,0 1010,8 88 -
00:34 6,1 4,3 6,0 WNW 3,0 1010,8 88 -
00:38 6,1 4,4 6,0 WNW 3,0 1010,8 89 -
00:44 6,1 4,2 4,0 WNW 2,0 1010,9 88 -
00:49 6,0 4,3 4,0 WNW 5,0 1010,9 89 -
00:53 5,9 4,3 6,0 WNW 3,0 1010,8 89 -
00:59 5,9 4,3 4,0 WNW 2,0 1010,8 89 -
01:04 5,9 4,2 4,0 WNW 1,0 1010,8 89 -
01:09 5,8 4,2 4,0 WNW 2,0 1010,8 89 -
01:14 5,8 4,1 4,0 WNW 2,0 1010,8 89 -
01:19 5,8 4,1 2,0 WNW 5,0 1010,8 89 -
01:24 5,8 4,1 2,0 WNW 1,0 1010,8 89 -
01:29 5,7 4,1 2,0 WNW   1010,7 89 -
01:34 5,7 4,2   Windstille   1010,6 90 -
01:39 5,6 3,9   Windstille   1010,6 89 -
01:44 5,5 3,9   Windstille   1010,6 90 -
01:48 5,4 3,9   Windstille 2,0 1010,6 90 -
01:54 5,3 3,8   Windstille   1010,6 90 -
01:59 5,3 3,8 4,0 WNW 3,0 1010,6 90 -
02:04 5,4 4,1 7,0 WNW 5,0 1010,7 91 -
02:09 5,6 4,3 7,0 Westen 5,0 1010,7 91 -
02:14 5,8 4,4 6,0 Westen 4,0 1010,7 91 -
02:19 5,9 4,7 6,0 Westen 8,0 1010,7 92 -
02:24 6,1 4,9 4,0 Westen 3,0 1010,7 92 -
02:29 6,2 5,0 4,0 Westen 2,0 1010,7 92 -
02:34 6,3 5,1 4,0 Westen 3,0 1010,7 92 -
02:39 6,3 5,1 4,0 Westen 1,0 1010,6 92 0,20
02:44 6,4 5,2 4,0 Westen 4,0 1010,6 92 0,20
02:48 6,4 5,2 4,0 Westen 3,0 1010,5 92 0,41
02:54 6,4 5,2 4,0 Westen 1,0 1010,5 92 0,41
02:59 6,4 5,2 2,0 Westen 1,0 1010,5 92 0,41
03:04 6,3 5,1 4,0 Westen 2,0 1010,4 92 0,41
03:09 6,3 5,1 4,0 Westen   1010,4 92 0,41
03:14 6,2 4,9 2,0 Westen   1010,4 92 0,41
03:18 6,1 4,9 4,0 Westen 3,0 1010,4 92 0,41
03:24 6,0 4,8 2,0 Westen 1,0 1010,3 92 0,41
03:29 5,9 4,7 4,0 Westen 1,0 1010,3 92 0,41
03:34 5,9 4,7 4,0 Westen 3,0 1010,3 92 0,41
03:39 5,8 4,6 6,0 Westen 4,0 1010,3 92 0,20
03:44 5,9 4,7 10,0 Westen 7,0 1010,4 92 0,20
03:49 6,1 5,0 8,0 Westen 4,0 1010,5 93 -
03:54 6,2 5,1 11,0 SW 7,0 1010,5 93 0,20
03:59 6,2 5,2 9,0 NNW 5,0 1010,5 93 0,20
04:03 6,2 5,2 6,0 Norden 2,0 1010,5 93 0,20
04:09 6,2 5,1 6,0 Norden 3,0 1010,4 93 0,20
04:14 6,1 5,1 9,0 NNW 5,0 1010,4 93 0,20
04:19 6,1 5,0 2,0 NNW 11,0 1010,4 93 0,20
04:24 6,1 5,0 6,0 NNW 2,0 1010,4 93 0,20
04:29 6,1 5,0 4,0 NNW 2,0 1010,4 93 0,20
04:33 6,1 5,0 6,0 NNW 3,0 1010,4 93 0,20
04:39 6,1 5,0 4,0 NNW 3,0 1010,4 93 0,20
04:44 6,1 5,0 4,0 NW 2,0 1010,5 93 0,20
04:49 6,1 5,1 9,0 Westen 7,0 1010,5 93 0,20
04:54 6,2 5,1 10,0 Westen 6,0 1010,4 93 0,20
04:59 6,2 5,1 9,0 Westen 5,0 1010,4 93 -
05:04 6,2 5,1 13,0 WNW 13,0 1010,4 93 0,20
05:09 6,2 5,1 13,0 NNW 8,0 1010,4 93 0,20
05:14 6,1 5,1 11,0 Norden 7,0 1010,4 93 0,20
05:18 6,0 4,9 11,0 Norden 13,0 1010,5 93 0,20
05:23 5,9 4,8 7,0 Norden 4,0 1010,5 93 0,20
05:29 5,8 4,8 4,0 NNW 2,0 1010,5 93 0,20
05:34 5,8 4,7 4,0 NNW 8,0 1010,6 93 0,20
05:39 5,8 4,7 4,0 NNW 1,0 1010,6 93 0,20
05:44 5,7 4,7 4,0 NNW 1,0 1010,6 93 0,20
05:49 5,7 4,6 4,0 NNW 3,0 1010,7 93 0,20
05:54 5,6 4,5 6,0 NNW 2,0 1010,7 93 0,20
05:59 5,5 4,4 4,0 NNW 1,0 1010,7 93 0,20
06:04 5,4 4,3 4,0 NNW 5,0 1010,7 93 0,20
06:09 5,3 4,2 2,0 NNW 1,0 1010,7 93 -
06:14 5,2 4,2 4,0 NNW 1,0 1010,7 93 -
06:19 5,1 4,1 4,0 NNW 3,0 1010,8 93 -
06:24 5,1 4,0   Windstille   1010,8 93 -
06:29 5,0 3,9 4,0 NNW 2,0 1010,8 93 -
06:34 4,9 3,9 4,0 NNW 3,0 1010,7 93 -
06:39 4,8 3,8 6,0 NNW 2,0 1010,7 93 -
06:44 4,8 3,7 4,0 NNW 2,0 1010,7 93 -
06:49 4,7 3,7 6,0 NW 5,0 1010,8 93 -
06:53 4,7 3,6 5,0 NW 2,0 1010,7 93 -
06:59 4,7 3,6 6,0 NW 4,0 1010,7 93 -
07:03 4,7 3,6 5,0 NW 5,0 1010,8 93 -
07:09 4,7 3,8 4,0 NW 2,0 1010,8 94 -
07:14 4,7 3,8 6,0 NW 4,0 1010,8 94 -
07:19 4,7 3,8 4,0 NW 5,0 1010,7 94 -
07:24 4,7 3,8 2,0 NW 1,0 1010,8 94 -
07:29 4,9 4,1 4,0 NW 2,0 1010,8 94 -
07:34 5,2 4,3 4,0 NW 3,0 1010,8 94 -
07:39 5,4 4,5 2,0 NW 1,0 1010,7 94 -
07:44 5,7 5,0 2,0 NW   1010,7 95 -
07:49 6,2 5,4 2,0 NW 3,0 1010,8 95 -
07:54 6,4 5,7 6,0 NW 3,0 1010,8 95 -
07:59 6,8 6,1 6,0 NW 4,0 1010,8 95 -
08:04 7,0 6,2 6,0 NW 5,0 1010,8 95 -
08:09 7,2 6,3 2,0 NW 1,0 1010,8 94 -
08:14 7,3 6,3 4,0 NW 2,0 1010,8 94 -
08:19 7,5 6,4 6,0 NW 5,0 1010,8 94 -
08:24 7,8 6,8 4,0 NW 1,0 1010,8 94 -
08:29 8,2 7,0 6,0 NW 2,0 1010,8 93 -
08:34 8,4 7,2 2,0 NW 5,0 1010,8 92 -
08:39 8,7 7,3 4,0 NW 2,0 1010,7 91 -
08:43 9,0 7,4 9,0 NW 4,0 1010,7 90 -
08:49 9,6 7,7 13,0 NW 13,0 1010,7 89 -
08:54 9,9 7,7 9,0 Westen 4,0 1010,7 87 -
08:59 10,2 7,7 11,0 Westen 8,0 1010,7 85 -
09:04 10,3 7,6 15,0 WSW 16,0 1010,8 83 -
09:09 10,3 7,2 13,0 Westen 9,0 1010,8 81 -
09:14 10,2 6,9 10,0 Westen 6,0 1010,9 80 -
09:19 9,7 6,1 14,0 WSW 15,0 1010,9 78 -
09:24 9,1 5,5 17,0 WSW 13,0 1011,0 78 -
09:29 8,5 5,0 20,0 WSW 12,0 1010,9 79 -
09:34 8,1 4,8 10,0 Westen 21,0 1010,9 80 0,20
09:39 7,8 4,6 10,0 WSW 7,0 1010,9 80 0,20
09:44 7,4 4,5 6,0 SW 5,0 1010,8 82 0,20
09:49 7,3 4,6 4,0 SW 10,0 1010,7 83 0,41
09:54 7,3 4,8 4,0 WSW 4,0 1010,8 84 0,41
09:59 7,4 5,1 2,0 WSW 1,0 1010,8 85 0,41
10:04 7,5 5,3 4,0 WSW 3,0 1010,8 86 0,41
10:08 7,7 5,5 11,0 NNW 7,0 1010,8 86 0,41
10:14 8,0 5,7 13,0 Norden 8,0 1010,8 86 0,41
10:19 8,4 5,8 9,0 NNW 13,0 1010,7 84 0,41
10:24 8,8 6,2 13,0 NNW 6,0 1010,7 85 0,41
10:29 9,3 6,6 6,0 NW 3,0 1010,6 84 0,41
10:34 9,6 6,6 9,0 NNW 13,0 1010,5 82 0,20
10:39 9,8 6,3 6,0 NNW 3,0 1010,5 79 0,20
10:44 10,2 6,4 9,0 Norden 5,0 1010,5 77 0,20
10:49 10,5 6,4 7,0 NW 10,0 1010,4 76 -
10:54 10,8 6,9 7,0 NNW 5,0 1010,4 77 -
10:59 10,7 6,0 4,0 NNW 2,0 1010,4 73 -
11:04 10,7 6,2 7,0 NW 8,0 1010,4 74 -
11:09 10,8 6,3 7,0 WNW 5,0 1010,3 74 -
11:14 10,7 6,1 5,0 NW 3,0 1010,3 73 -
11:19 10,8 6,1 6,0 WNW 8,0 1010,2 73 -
11:24 10,9 6,3 9,0 WSW 5,0 1010,2 73 -
11:29 10,9 6,1 9,0 SW 4,0 1010,2 72 -
11:34 10,6 5,4 7,0 SW 10,0 1010,2 71 -
11:39 10,5 5,7 8,0 SW 7,0 1010,2 72 -
11:44 10,4 5,6 8,0 WSW 5,0 1010,3 72 -
11:49 10,2 5,6 16,0 WSW 16,0 1010,4 73 -
11:54 9,6 5,2 23,0 Westen 13,0 1010,6 75 0,20
11:59 8,8 4,8 17,0 SW 10,0 1010,8 78 0,61
12:03 7,7 4,3 6,0 SW 23,0 1010,7 79 1,22
12:09 7,2 3,9 6,0 WSW 5,0 1010,7 81 1,83
12:14 6,8 4,0 4,0 WSW 2,0 1010,7 83 2,03
12:19 6,7 4,1   Windstille   1010,7 84 2,44
12:24 6,5 4,3 2,0 WSW 2,0 1010,8 86 2,44
12:29 6,5 4,5 6,0 WNW 3,0 1010,9 87 2,44
12:33 6,5 4,5 9,0 Westen 10,0 1010,8 87 2,64
12:39 6,4 4,6 4,0 Westen 2,0 1010,9 88 2,64
12:44 6,5 4,7 7,0 NW 5,0 1011,0 88 2,64
12:49 6,5 4,7 9,0 NNO 10,0 1011,0 88 2,64
12:54 6,3 4,4 9,0 NNW 6,0 1011,0 88 2,64
12:59 6,1 4,4 9,0 NNW 3,0 1011,0 89 2,44
13:04 6,1 4,4 4,0 NNW 10,0 1011,0 89 1,63
13:09 6,1 4,6 5,0 NW 1,0 1011,0 90 1,22
13:14 6,1 4,6 6,0 NW 2,0 1011,0 90 0,81
13:19 6,1 4,6 6,0 NW 5,0 1011,0 90 0,61

Unsere Wetterdaten wie bei Weather Underground. Script entwickelt von Jim McMurry. Für die Verwendung der "Template" neu geschrieben Leuven-Template